KBTM/BTM METAR and TAF weather

Enter ICAO airport designator
Station Type Date Time Source
KBTM METAR 2019/08/24 08:53 UTC NOAA

KBTM 240853Z AUTO 21003KT 10SM CLR 12/09 A3003 RMK AO2 SLP127 T01170089 58004


Station Type Date Time Source
KBTM Decoded METAR 2019/08/24 08:53 UTC NOAA

Station name not available
Aug 24, 2019 - 04:53 AM EDT / 2019.08.24 0853 UTC
Wind: from the SSW (210 degrees) at 3 MPH (3 KT):0
Visibility: 10 mile(s):0
Sky conditions: clear
Temperature: 53.1 F (11.7 C)
Dew Point: 48.0 F (8.9 C)
Relative Humidity: 82%
Pressure (altimeter): 30.03 in. Hg (1016 hPa)
Pressure tendency: 0.01 inches (0.4 hPa) lower than three hours ago
ob: KBTM 240853Z AUTO 21003KT 10SM CLR 12/09 A3003 RMK AO2 SLP127 T01170089 58004
cycle: 9

Station Type Date Time Source
KBTM TAF 2019/08/24 06:22 UTC NOAA

TAF KBTM 240520Z 2406/2506 13005KT P6SM BKN110
FM241900 25011KT P6SM SCT110
FM242100 31015G25KT P6SM SCT150
FM250300 31007KT P6SM SCT200

Example: see airport list